createdAt,value
2023-01-15T00:00:10.122Z,99194.72
2023-01-15T00:02:39.025Z,99196.28
2023-01-15T00:05:07.089Z,99193.91
2023-01-15T00:07:35.632Z,99185.91
2023-01-15T00:10:03.341Z,99187.09
2023-01-15T00:12:34.768Z,99193.38
2023-01-15T00:15:05.196Z,99185.84
2023-01-15T00:17:34.709Z,99187.47
2023-01-15T00:20:04.094Z,99190.59
2023-01-15T00:22:33.646Z,99190.19
2023-01-15T00:25:22.468Z,99198.88
2023-01-15T00:27:50.918Z,99209.19
2023-01-15T00:30:18.592Z,99219.91
2023-01-15T00:32:48.427Z,99209.50
2023-01-15T00:35:20.152Z,99207.94
2023-01-15T00:37:49.923Z,99215.03
2023-01-15T00:40:19.833Z,99218.19
2023-01-15T00:42:53.556Z,99226.13
2023-01-15T00:45:24.100Z,99224.44
2023-01-15T00:47:52.329Z,99228.81
2023-01-15T00:50:20.989Z,99229.19
2023-01-15T00:52:49.144Z,99231.94
2023-01-15T00:55:17.683Z,99236.25
2023-01-15T00:57:48.853Z,99242.91
2023-01-15T01:00:17.373Z,99236.97
2023-01-15T01:02:46.932Z,99239.66
2023-01-15T01:05:14.558Z,99245.94
2023-01-15T01:07:42.605Z,99244.31
2023-01-15T01:10:10.628Z,99237.53
2023-01-15T01:12:40.085Z,99247.38
2023-01-15T01:15:12.456Z,99252.53
2023-01-15T01:17:40.437Z,99264.72
2023-01-15T01:20:12.288Z,99272.22
2023-01-15T01:22:41.379Z,99281.03
2023-01-15T01:25:11.541Z,99273.31
2023-01-15T01:27:57.867Z,99264.28
2023-01-15T01:30:44.200Z,99255.50
2023-01-15T01:33:13.943Z,99281.56
2023-01-15T01:35:48.659Z,99278.44
2023-01-15T01:38:17.069Z,99277.19
2023-01-15T01:40:44.607Z,99275.56
2023-01-15T01:43:29.848Z,99287.91
2023-01-15T01:45:59.432Z,99283.97
2023-01-15T01:48:32.097Z,99281.88
2023-01-15T01:51:05.864Z,99277.66
2023-01-15T01:53:34.676Z,99282.69
2023-01-15T01:56:04.453Z,99271.28
2023-01-15T01:58:32.936Z,99268.44
2023-01-15T02:01:02.322Z,99266.47
2023-01-15T02:03:36.783Z,99268.03
2023-01-15T02:06:10.297Z,99264.13
2023-01-15T02:08:41.319Z,99273.50
2023-01-15T02:11:16.601Z,99272.38
2023-01-15T02:14:04.375Z,99287.81
2023-01-15T02:16:51.073Z,99289.25
2023-01-15T02:19:37.459Z,99295.53
2023-01-15T02:22:29.870Z,99274.88
2023-01-15T02:25:14.440Z,99262.22
2023-01-15T02:27:46.502Z,99260.66
2023-01-15T02:30:23.114Z,99269.38
2023-01-15T02:33:06.623Z,99251.03
2023-01-15T02:35:39.838Z,99246.25
2023-01-15T02:38:14.816Z,99248.28
2023-01-15T02:40:42.869Z,99249.38
2023-01-15T02:43:15.482Z,99250.41
2023-01-15T02:45:48.568Z,99244.22
2023-01-15T02:48:20.409Z,99254.66
2023-01-15T02:50:54.888Z,99243.88
2023-01-15T02:53:28.289Z,99240.78
2023-01-15T02:56:03.515Z,99225.16
2023-01-15T02:58:36.793Z,99239.72
2023-01-15T03:01:13.229Z,99225.94
2023-01-15T03:04:06.217Z,99212.72
2023-01-15T03:06:41.105Z,99216.22
2023-01-15T03:09:10.341Z,99221.78
2023-01-15T03:11:47.076Z,99225.63
2023-01-15T03:14:21.677Z,99228.69
2023-01-15T03:17:02.853Z,99244.63
2023-01-15T03:19:55.203Z,99234.91
2023-01-15T03:22:32.154Z,99244.28
2023-01-15T03:25:21.242Z,99252.31
2023-01-15T03:27:52.732Z,99253.28
2023-01-15T03:30:22.874Z,99255.75
2023-01-15T03:32:50.593Z,99254.81
2023-01-15T03:35:46.883Z,99253.19
2023-01-15T03:38:20.525Z,99250.91
2023-01-15T03:40:57.822Z,99252.50
2023-01-15T03:43:51.073Z,99268.06
2023-01-15T03:46:37.144Z,99268.09
2023-01-15T03:49:46.745Z,99277.69
2023-01-15T03:52:18.649Z,99286.81
2023-01-15T03:55:07.659Z,99285.34
2023-01-15T03:57:39.380Z,99281.91
2023-01-15T04:00:16.940Z,99281.44
2023-01-15T04:02:46.947Z,99271.41
2023-01-15T04:05:16.409Z,99268.28
2023-01-15T04:07:46.721Z,99267.06
2023-01-15T04:10:15.364Z,99266.06
2023-01-15T04:12:44.050Z,99253.44
2023-01-15T04:15:13.438Z,99245.47
2023-01-15T04:17:42.681Z,99256.06
2023-01-15T04:20:12.806Z,99234.88
2023-01-15T04:22:42.060Z,99228.31
2023-01-15T04:25:11.585Z,99230.88
2023-01-15T04:27:41.637Z,99222.34
2023-01-15T04:30:10.604Z,99220.78
2023-01-15T04:32:39.457Z,99231.81
2023-01-15T04:35:07.437Z,99219.66
2023-01-15T04:37:35.583Z,99227.59
2023-01-15T04:40:02.985Z,99237.09
2023-01-15T04:43:06.069Z,99238.19
2023-01-15T04:45:36.428Z,99242.84
2023-01-15T04:48:05.635Z,99246.38
2023-01-15T04:50:34.154Z,99250.84
2023-01-15T04:53:05.357Z,99252.06
2023-01-15T04:55:35.908Z,99245.34
2023-01-15T04:58:04.108Z,99249.81
2023-01-15T05:00:31.808Z,99243.94
2023-01-15T05:03:00.712Z,99245.06
2023-01-15T05:05:29.190Z,99253.44
2023-01-15T05:07:59.083Z,99244.22
2023-01-15T05:10:27.482Z,99250.56
2023-01-15T05:12:57.566Z,99258.50
2023-01-15T05:15:26.596Z,99261.31
2023-01-15T05:17:56.443Z,99259.22
2023-01-15T05:20:25.791Z,99258.88
2023-01-15T05:22:54.636Z,99264.75
2023-01-15T05:25:23.279Z,99269.59
2023-01-15T05:27:53.552Z,99263.63
2023-01-15T05:30:22.674Z,99266.28
2023-01-15T05:33:09.000Z,99277.78
2023-01-15T05:35:38.490Z,99284.53
2023-01-15T05:38:06.852Z,99280.38
2023-01-15T05:40:36.423Z,99278.91
2023-01-15T05:43:06.571Z,99286.09
2023-01-15T05:45:36.219Z,99287.66
2023-01-15T05:48:05.320Z,99283.72
2023-01-15T05:50:34.211Z,99288.41
2023-01-15T05:53:03.035Z,99291.53
2023-01-15T05:55:32.663Z,99281.22
2023-01-15T05:58:01.488Z,99283.09
2023-01-15T06:00:30.573Z,99283.41
2023-01-15T06:03:02.895Z,99284.91
2023-01-15T06:05:33.360Z,99283.38
2023-01-15T06:08:01.639Z,99277.03
2023-01-15T06:10:31.817Z,99282.44
2023-01-15T06:13:02.377Z,99299.03
2023-01-15T06:15:30.200Z,99302.97
2023-01-15T06:17:58.728Z,99302.91
2023-01-15T06:20:29.450Z,99299.84
2023-01-15T06:22:59.700Z,99300.53
2023-01-15T06:25:27.437Z,99312.34
2023-01-15T06:27:58.265Z,99313.41
2023-01-15T06:30:26.867Z,99321.19
2023-01-15T06:32:55.645Z,99332.63
2023-01-15T06:35:24.227Z,99338.03
2023-01-15T06:37:53.523Z,99344.34
2023-01-15T06:40:23.562Z,99334.09
2023-01-15T06:43:11.240Z,99335.75
2023-01-15T06:45:59.618Z,99336.78
2023-01-15T06:48:29.216Z,99336.19
2023-01-15T06:50:56.891Z,99334.69
2023-01-15T06:53:25.474Z,99332.19
2023-01-15T06:55:54.705Z,99335.44
2023-01-15T06:58:24.100Z,99322.47
2023-01-15T07:00:56.059Z,99311.38
2023-01-15T07:03:25.382Z,99320.22
2023-01-15T07:05:56.800Z,99313.94
2023-01-15T07:08:27.343Z,99319.13
2023-01-15T07:10:55.786Z,99317.56
2023-01-15T07:13:25.148Z,99331.81
2023-01-15T07:15:53.116Z,99344.78
2023-01-15T07:18:20.742Z,99343.69
2023-01-15T07:20:48.875Z,99366.13
2023-01-15T07:23:17.636Z,99376.44
2023-01-15T07:25:46.501Z,99377.19
2023-01-15T07:28:15.448Z,99382.41
2023-01-15T07:30:43.958Z,99376.03
2023-01-15T07:33:13.061Z,99370.88
2023-01-15T07:35:43.050Z,99373.97
2023-01-15T07:38:12.986Z,99371.91
2023-01-15T07:40:42.495Z,99360.91
2023-01-15T07:43:30.415Z,99362.69
2023-01-15T07:46:17.200Z,99359.56
2023-01-15T07:49:03.763Z,99362.69
2023-01-15T07:51:34.704Z,99356.28
2023-01-15T07:54:04.637Z,99372.00
2023-01-15T07:56:34.510Z,99358.53
2023-01-15T07:59:03.548Z,99359.50
2023-01-15T08:01:31.900Z,99363.06
2023-01-15T08:04:00.393Z,99367.84
2023-01-15T08:06:30.359Z,99378.53
2023-01-15T08:09:00.951Z,99373.81
2023-01-15T08:11:47.371Z,99363.38
2023-01-15T08:14:54.770Z,99353.72
2023-01-15T08:17:21.956Z,99359.00
2023-01-15T08:19:51.479Z,99374.78
2023-01-15T08:22:22.192Z,99383.16
2023-01-15T08:24:50.963Z,99384.94
2023-01-15T08:27:19.278Z,99389.66
2023-01-15T08:29:47.366Z,99382.72
2023-01-15T08:32:15.458Z,99386.72
2023-01-15T08:34:43.549Z,99384.03
2023-01-15T08:37:12.975Z,99397.84
2023-01-15T08:39:41.896Z,99402.31
2023-01-15T08:42:11.905Z,99404.16
2023-01-15T08:44:40.818Z,99413.75
2023-01-15T08:47:08.709Z,99406.22
2023-01-15T08:49:38.353Z,99412.66
2023-01-15T08:52:08.081Z,99416.59
2023-01-15T08:54:36.834Z,99417.22
2023-01-15T08:57:05.521Z,99414.13
2023-01-15T08:59:34.235Z,99407.72
2023-01-15T09:02:02.681Z,99422.13
2023-01-15T09:04:32.469Z,99419.72
2023-01-15T09:07:01.378Z,99412.59
2023-01-15T09:09:29.432Z,99431.94
2023-01-15T09:11:58.173Z,99418.88
2023-01-15T09:14:56.917Z,99429.72
2023-01-15T09:17:17.129Z,99434.91
2023-01-15T09:19:46.580Z,99425.31
2023-01-15T09:22:15.547Z,99430.78
2023-01-15T09:24:46.217Z,99430.13
2023-01-15T09:27:16.462Z,99429.72
2023-01-15T09:29:45.242Z,99441.63
2023-01-15T09:32:13.118Z,99435.25
2023-01-15T09:34:42.394Z,99438.41
2023-01-15T09:37:12.252Z,99430.66
2023-01-15T09:39:42.611Z,99434.47
2023-01-15T09:42:15.735Z,99429.09
2023-01-15T09:45:18.957Z,99425.94
2023-01-15T09:47:58.931Z,99433.91
2023-01-15T09:51:05.847Z,99433.22
2023-01-15T09:53:37.132Z,99422.13
2023-01-15T09:56:13.803Z,99424.72
2023-01-15T09:58:44.104Z,99421.41
2023-01-15T10:01:18.098Z,99422.09
2023-01-15T10:03:52.136Z,99430.75
2023-01-15T10:06:29.360Z,99438.97
2023-01-15T10:09:11.401Z,99447.59
2023-01-15T10:12:06.129Z,99435.03
2023-01-15T10:14:45.685Z,99442.13
2023-01-15T10:17:25.526Z,99437.16
2023-01-15T10:19:54.988Z,99437.44
2023-01-15T10:22:36.281Z,99436.44
2023-01-15T10:25:14.557Z,99431.22
2023-01-15T10:27:50.597Z,99427.56
2023-01-15T10:30:40.945Z,99438.59
2023-01-15T10:33:35.941Z,99449.69
2023-01-15T10:36:11.187Z,99456.00
2023-01-15T10:38:56.133Z,99458.31
2023-01-15T10:41:37.892Z,99484.66
2023-01-15T10:44:16.415Z,99500.72
2023-01-15T10:46:54.896Z,99497.16
2023-01-15T10:49:29.831Z,99503.91
2023-01-15T10:52:05.067Z,99494.03
2023-01-15T10:54:48.715Z,99494.94
2023-01-15T10:57:23.231Z,99499.78
2023-01-15T10:59:56.844Z,99492.25
2023-01-15T11:02:39.927Z,99481.56
2023-01-15T11:05:14.273Z,99479.69
2023-01-15T11:08:06.556Z,99465.22
2023-01-15T11:10:32.004Z,99466.31
2023-01-15T11:13:31.422Z,99466.66
2023-01-15T11:16:16.675Z,99466.44
2023-01-15T11:19:04.834Z,99468.25
2023-01-15T11:21:31.842Z,99459.59
2023-01-15T11:24:00.678Z,99462.19
2023-01-15T11:26:30.856Z,99454.19
2023-01-15T11:29:01.598Z,99441.25
2023-01-15T11:31:39.801Z,99462.41
2023-01-15T11:34:20.868Z,99460.41
2023-01-15T11:36:49.019Z,99453.84
2023-01-15T11:39:28.121Z,99451.38
2023-01-15T11:42:24.474Z,99466.44
2023-01-15T11:45:15.252Z,99466.09
2023-01-15T11:48:13.083Z,99452.91
2023-01-15T11:50:56.747Z,99458.69
2023-01-15T11:53:32.819Z,99453.63
2023-01-15T11:56:09.055Z,99463.00
2023-01-15T11:58:47.532Z,99445.16
2023-01-15T12:01:23.593Z,99437.31
2023-01-15T12:03:52.742Z,99430.72
2023-01-15T12:06:21.223Z,99447.22
2023-01-15T12:08:51.427Z,99438.00
2023-01-15T12:11:56.049Z,99450.34
2023-01-15T12:14:41.742Z,99445.84
2023-01-15T12:17:37.372Z,99442.31
2023-01-15T12:20:16.102Z,99438.00
2023-01-15T12:22:53.494Z,99428.13
2023-01-15T12:25:53.721Z,99419.00
2023-01-15T12:28:32.110Z,99422.00
2023-01-15T12:31:12.092Z,99396.69
2023-01-15T12:33:56.533Z,99380.75
2023-01-15T12:36:36.912Z,99367.94
2023-01-15T12:39:17.464Z,99365.72
2023-01-15T12:42:08.450Z,99375.94
2023-01-15T12:44:57.754Z,99387.19
2023-01-15T12:47:52.037Z,99404.66
2023-01-15T12:50:29.635Z,99410.25
2023-01-15T12:53:06.116Z,99401.44
2023-01-15T12:55:40.121Z,99426.75
2023-01-15T12:58:31.076Z,99398.44
2023-01-15T13:01:15.526Z,99416.81
2023-01-15T13:03:58.171Z,99411.38
2023-01-15T13:06:28.498Z,99403.94
2023-01-15T13:09:14.501Z,99425.06
2023-01-15T13:11:40.976Z,99408.75
2023-01-15T13:14:21.601Z,99418.66
2023-01-15T13:17:05.624Z,99413.84
2023-01-15T13:19:49.198Z,99420.97
2023-01-15T13:22:20.904Z,99440.94
2023-01-15T13:25:17.863Z,99438.16
2023-01-15T13:27:56.861Z,99445.19
2023-01-15T13:30:37.646Z,99462.22
2023-01-15T13:33:23.221Z,99441.44
2023-01-15T13:35:54.184Z,99452.94
2023-01-15T13:38:27.461Z,99463.63
2023-01-15T13:40:56.907Z,99454.56
2023-01-15T13:43:34.869Z,99457.72
2023-01-15T13:46:04.604Z,99459.50
2023-01-15T13:48:31.201Z,99461.44
2023-01-15T13:51:04.526Z,99450.28
2023-01-15T13:53:36.302Z,99453.06
2023-01-15T13:56:14.616Z,99464.09
2023-01-15T13:58:54.274Z,99469.19
2023-01-15T14:01:38.748Z,99454.13
2023-01-15T14:04:06.775Z,99461.22
2023-01-15T14:06:42.414Z,99468.31
2023-01-15T14:09:32.103Z,99463.88
2023-01-15T14:12:07.536Z,99465.00
2023-01-15T14:14:55.514Z,99467.38
2023-01-15T14:17:40.856Z,99472.16
2023-01-15T14:20:16.015Z,99467.41
2023-01-15T14:23:10.524Z,99468.25
2023-01-15T14:25:58.436Z,99475.38
2023-01-15T14:28:48.687Z,99480.06
2023-01-15T14:31:27.302Z,99481.50
2023-01-15T14:34:03.781Z,99488.59
2023-01-15T14:36:51.219Z,99491.78
2023-01-15T14:39:26.639Z,99498.06
2023-01-15T14:42:18.574Z,99497.22
2023-01-15T14:44:46.242Z,99513.06
2023-01-15T14:47:28.237Z,99517.78
2023-01-15T14:50:02.460Z,99507.47
2023-01-15T14:52:29.511Z,99518.91
2023-01-15T14:54:58.382Z,99524.78
2023-01-15T14:57:26.773Z,99520.44
2023-01-15T15:00:00.577Z,99521.25
2023-01-15T15:02:37.585Z,99531.19
2023-01-15T15:05:08.984Z,99520.44
2023-01-15T15:07:45.176Z,99522.03
2023-01-15T15:10:23.830Z,99528.91
2023-01-15T15:12:56.773Z,99523.19
2023-01-15T15:15:26.510Z,99523.16
2023-01-15T15:18:11.497Z,99531.53
2023-01-15T15:20:50.007Z,99518.44
2023-01-15T15:23:37.886Z,99516.69
2023-01-15T15:26:06.967Z,99508.22
2023-01-15T15:28:33.506Z,99510.22
2023-01-15T15:31:01.381Z,99517.59
2023-01-15T15:33:37.088Z,99512.38
2023-01-15T15:36:07.695Z,99514.81
2023-01-15T15:38:34.888Z,99502.50
2023-01-15T15:41:04.952Z,99506.34
2023-01-15T15:44:04.283Z,99507.59
2023-01-15T15:46:51.862Z,99511.16
2023-01-15T15:49:20.155Z,99512.28
2023-01-15T15:51:48.813Z,99511.53
2023-01-15T15:54:16.960Z,99500.41
2023-01-15T15:57:06.949Z,99508.72
2023-01-15T15:59:38.820Z,99508.25
2023-01-15T16:02:16.771Z,99500.94
2023-01-15T16:04:55.326Z,99509.50
2023-01-15T16:07:26.847Z,99504.69
2023-01-15T16:09:58.371Z,99500.41
2023-01-15T16:12:29.971Z,99504.69
2023-01-15T16:14:58.622Z,99500.75
2023-01-15T16:17:29.125Z,99507.16
2023-01-15T16:20:16.564Z,99500.19
2023-01-15T16:23:03.175Z,99513.19
2023-01-15T16:25:35.706Z,99504.97
2023-01-15T16:28:03.943Z,99505.28
2023-01-15T16:30:34.287Z,99509.81
2023-01-15T16:33:07.025Z,99513.09
2023-01-15T16:35:36.916Z,99512.47
2023-01-15T16:38:05.149Z,99508.13
2023-01-15T16:40:38.844Z,99509.97
2023-01-15T16:43:12.129Z,99512.88
2023-01-15T16:45:57.314Z,99514.56
2023-01-15T16:48:37.963Z,99518.34
2023-01-15T16:51:24.070Z,99520.28
2023-01-15T16:53:50.937Z,99521.34
2023-01-15T16:56:43.687Z,99521.25
2023-01-15T16:59:16.331Z,99514.06
2023-01-15T17:01:46.141Z,99514.88
2023-01-15T17:04:27.219Z,99498.19
2023-01-15T17:07:06.765Z,99507.47
2023-01-15T17:09:36.557Z,99498.22
2023-01-15T17:12:25.994Z,99510.00
2023-01-15T17:14:53.609Z,99505.72
2023-01-15T17:17:20.724Z,99514.94
2023-01-15T17:19:47.899Z,99517.19
2023-01-15T17:22:16.780Z,99510.25
2023-01-15T17:24:51.077Z,99507.16
2023-01-15T17:27:17.645Z,99507.47
2023-01-15T17:29:44.776Z,99510.88
2023-01-15T17:32:15.513Z,99511.28
2023-01-15T17:34:42.327Z,99506.84
2023-01-15T17:37:09.025Z,99505.63
2023-01-15T17:39:35.652Z,99505.72
2023-01-15T17:42:02.125Z,99506.66
2023-01-15T17:44:29.488Z,99498.94
2023-01-15T17:46:55.883Z,99513.25
2023-01-15T17:49:22.579Z,99511.34
2023-01-15T17:51:49.322Z,99512.25
2023-01-15T17:54:35.775Z,99509.03
2023-01-15T17:57:20.816Z,99500.91
2023-01-15T18:00:06.479Z,99504.88
2023-01-15T18:02:54.192Z,99513.25
2023-01-15T18:05:27.261Z,99509.13
2023-01-15T18:07:56.540Z,99520.75
2023-01-15T18:10:24.623Z,99505.91
2023-01-15T18:12:52.013Z,99504.25
2023-01-15T18:15:19.618Z,99504.13
2023-01-15T18:17:46.856Z,99497.66
2023-01-15T18:20:14.148Z,99486.50
2023-01-15T18:22:41.588Z,99495.09
2023-01-15T18:25:11.080Z,99480.63
2023-01-15T18:27:43.173Z,99487.16
2023-01-15T18:30:15.110Z,99498.03
2023-01-15T18:32:45.420Z,99497.59
2023-01-15T18:35:13.567Z,99488.53
2023-01-15T18:37:40.369Z,99494.78
2023-01-15T18:40:07.570Z,99489.44
2023-01-15T18:42:52.520Z,99495.56
2023-01-15T18:45:37.766Z,99496.81
2023-01-15T18:48:04.867Z,99498.03
2023-01-15T18:50:31.381Z,99498.66
2023-01-15T18:52:58.699Z,99500.66
2023-01-15T18:55:28.312Z,99484.00
2023-01-15T18:57:56.309Z,99487.50
2023-01-15T19:00:24.760Z,99474.84
2023-01-15T19:02:51.957Z,99484.84
2023-01-15T19:05:19.234Z,99484.66
2023-01-15T19:07:46.613Z,99482.56
2023-01-15T19:10:15.808Z,99474.78
2023-01-15T19:12:44.879Z,99474.06
2023-01-15T19:15:34.049Z,99462.22
2023-01-15T19:18:19.545Z,99463.03
2023-01-15T19:20:47.814Z,99459.97
2023-01-15T19:23:14.676Z,99459.13
2023-01-15T19:25:44.299Z,99455.06
2023-01-15T19:28:16.361Z,99457.56
2023-01-15T19:31:05.052Z,99456.75
2023-01-15T19:33:33.630Z,99461.31
2023-01-15T19:36:02.064Z,99461.75
2023-01-15T19:38:30.223Z,99466.41
2023-01-15T19:41:17.253Z,99458.31
2023-01-15T19:44:03.291Z,99465.06
2023-01-15T19:46:50.086Z,99461.25
2023-01-15T19:49:40.807Z,99464.09
2023-01-15T19:52:27.107Z,99448.53
2023-01-15T19:54:56.854Z,99436.38
2023-01-15T19:57:24.021Z,99426.34
2023-01-15T19:59:50.627Z,99437.72
2023-01-15T20:02:17.173Z,99429.19
2023-01-15T20:04:48.565Z,99412.94
2023-01-15T20:07:15.475Z,99419.69
2023-01-15T20:09:42.949Z,99419.31
2023-01-15T20:12:29.895Z,99418.22
2023-01-15T20:14:56.675Z,99405.13
2023-01-15T20:17:24.051Z,99413.09
2023-01-15T20:19:50.576Z,99386.19
2023-01-15T20:22:17.253Z,99396.44
2023-01-15T20:24:44.372Z,99393.91
2023-01-15T20:27:13.069Z,99380.63
2023-01-15T20:29:42.880Z,99377.16
2023-01-15T20:32:09.935Z,99372.81
2023-01-15T20:34:40.521Z,99358.25
2023-01-15T20:37:07.440Z,99359.47
2023-01-15T20:39:34.182Z,99357.50
2023-01-15T20:42:19.349Z,99345.63
2023-01-15T20:44:55.151Z,99335.31
2023-01-15T20:47:42.098Z,99344.09
2023-01-15T20:50:11.068Z,99333.25
2023-01-15T20:52:41.802Z,99323.50
2023-01-15T20:55:09.611Z,99302.81
2023-01-15T20:57:39.036Z,99316.06
2023-01-15T21:00:17.520Z,99302.88
2023-01-15T21:02:44.555Z,99296.56
2023-01-15T21:05:11.391Z,99283.72
2023-01-15T21:07:39.284Z,99291.38
2023-01-15T21:10:08.452Z,99282.88
2023-01-15T21:12:35.019Z,99272.53
2023-01-15T21:15:01.564Z,99270.09
2023-01-15T21:17:28.439Z,99270.53
2023-01-15T21:19:55.064Z,99275.63
2023-01-15T21:22:21.716Z,99262.09
2023-01-15T21:24:50.070Z,99267.78
2023-01-15T21:27:17.919Z,99260.09
2023-01-15T21:29:46.893Z,99256.13
2023-01-15T21:32:13.425Z,99247.75
2023-01-15T21:34:40.475Z,99243.06
2023-01-15T21:37:07.037Z,99240.47
2023-01-15T21:39:34.175Z,99242.03
2023-01-15T21:42:19.120Z,99242.78
2023-01-15T21:44:45.947Z,99235.38
2023-01-15T21:47:15.077Z,99230.19
2023-01-15T21:49:43.365Z,99225.97
2023-01-15T21:52:19.700Z,99220.19
2023-01-15T21:54:46.856Z,99229.19
2023-01-15T21:57:15.394Z,99225.59
2023-01-15T21:59:42.501Z,99206.97
2023-01-15T22:02:16.688Z,99204.59
2023-01-15T22:04:43.903Z,99205.00
2023-01-15T22:07:11.195Z,99198.19
2023-01-15T22:09:37.887Z,99201.03
2023-01-15T22:12:05.373Z,99182.81
2023-01-15T22:14:33.083Z,99188.81
2023-01-15T22:17:02.034Z,99184.88
2023-01-15T22:19:30.670Z,99179.25
2023-01-15T22:22:03.924Z,99171.72
2023-01-15T22:24:33.279Z,99171.72
2023-01-15T22:27:01.658Z,99162.16
2023-01-15T22:29:31.926Z,99163.38
2023-01-15T22:31:59.330Z,99166.91
2023-01-15T22:34:28.021Z,99156.19
2023-01-15T22:36:54.556Z,99162.16
2023-01-15T22:39:23.015Z,99151.47
2023-01-15T22:42:08.567Z,99139.09
2023-01-15T22:44:35.682Z,99142.53
2023-01-15T22:47:03.386Z,99133.66
2023-01-15T22:49:30.027Z,99138.78
2023-01-15T22:51:56.728Z,99132.47
2023-01-15T22:54:23.425Z,99149.13
2023-01-15T22:56:49.847Z,99140.75
2023-01-15T22:59:16.608Z,99133.16
2023-01-15T23:01:44.059Z,99124.34
2023-01-15T23:04:14.621Z,99133.16
2023-01-15T23:06:41.412Z,99123.59
2023-01-15T23:09:08.478Z,99123.47
2023-01-15T23:11:35.657Z,99118.34
2023-01-15T23:14:02.363Z,99111.63
2023-01-15T23:16:29.183Z,99109.66
2023-01-15T23:18:55.769Z,99098.38
2023-01-15T23:21:24.754Z,99091.03
2023-01-15T23:23:59.575Z,99083.31
2023-01-15T23:26:29.747Z,99079.91
2023-01-15T23:28:56.659Z,99085.75
2023-01-15T23:31:24.086Z,99078.19
2023-01-15T23:33:51.640Z,99062.78
2023-01-15T23:36:18.784Z,99058.13
2023-01-15T23:38:48.760Z,99063.09
2023-01-15T23:41:18.679Z,99059.94
2023-01-15T23:44:04.152Z,99055.56
2023-01-15T23:46:40.192Z,99051.94
2023-01-15T23:49:14.466Z,99055.91
2023-01-15T23:51:41.485Z,99043.44
2023-01-15T23:54:08.845Z,99040.34
2023-01-15T23:56:36.162Z,99032.06
2023-01-15T23:59:03.221Z,99027.13
